Tokuyo Maru No.15 — JD2184 — position and weather

sailwx.info

Track history (hours):
 
Tides and Currents Weather Stations Pressure Air Temp Water Temp Dewpoint Dewpoint Depression Visibility Wind Speed Wind Dir Waves Ship Positions

Tokuyo Maru No.15

Last reported at 2017-Jun-30 06:04 UTC. Time now 2017-Jul-21 20:42 UTC.
Position N 35°15' E 139°46'.
Warning: this ship's position is 21 days out of date.

Length 66 m; draft 4.5 m.

Type: Tanker. MMSI: 431402034.

Date/timePositionNaut miles runAvg speedWind from/ knotsBaromVisibWave heightAir tempDewpointWater temp
2017-Jun-30 06:04N 35°15' E 139°46'112.1
2017-Jun-30 06:00N 35°16' E 139°46'611.7
2017-Jun-30 05:30N 35°21' E 139°42'611.1
2017-Jun-30 05:00N 35°26' E 139°45'5 9.2
2017-Jun-30 04:30N 35°30' E 139°47'1 2.0
2017-Jun-30 04:00N 35°31' E 139°46'0 0.1
2017-Jun-30 03:30N 35°31' E 139°46'0 0.0
2017-Jun-30 03:00N 35°31' E 139°46'0 0.0
2017-Jun-30 02:30N 35°31' E 139°46'0 0.1
2017-Jun-30 02:00N 35°31' E 139°46'0 0.1
2017-Jun-30 01:30N 35°31' E 139°46'0 0.0
2017-Jun-30 01:00N 35°31' E 139°46'0 0.1
2017-Jun-30 00:30N 35°31' E 139°46'0 0.1
2017-Jun-30 00:00N 35°31' E 139°46'0 0.0
2017-Jun-29 23:30N 35°31' E 139°46'0 0.0
2017-Jun-29 23:00N 35°31' E 139°46'0 0.1
2017-Jun-29 22:30N 35°31' E 139°46'0 0.1
2017-Jun-29 22:00N 35°31' E 139°46'1 1.2
2017-Jun-29 21:30N 35°31' E 139°46'3 5.4
2017-Jun-29 21:00N 35°29' E 139°49'0 0.0
2017-Jun-29 20:29N 35°29' E 139°49'0 0.0
2017-Jun-29 19:59N 35°29' E 139°49'0 0.0
2017-Jun-29 19:29N 35°29' E 139°49'0 0.0
2017-Jun-29 18:59N 35°29' E 139°49'0 0.0
2017-Jun-29 18:29N 35°29' E 139°49'0 0.1
2017-Jun-29 18:00N 35°29' E 139°49'4 8.0
2017-Jun-29 17:30N 35°25' E 139°47'612.2
2017-Jun-29 17:00N 35°20' E 139°44'  
Track history (hours):
 
Tides and Currents Weather Stations Pressure Air Temp Water Temp Dewpoint Dewpoint Depression Visibility Wind Speed Wind Dir Waves Ship Positions

Tokuyo Maru No.15

Last reported at 2017-Jun-30 06:04 UTC. Time now 2017-Jul-21 20:42 UTC.
Position N 35°15' E 139°46'.
Warning: this ship's position is 21 days out of date.

Length 66 m; draft 4.5 m.

Type: Tanker. MMSI: 431402034.

Date/timePositionNaut miles runAvg speedWind from/ knotsBaromVisibWave heightAir tempDewpointWater temp
2017-Jun-30 06:04N 35°15' E 139°46'112.1
2017-Jun-30 06:00N 35°16' E 139°46'611.7
2017-Jun-30 05:30N 35°21' E 139°42'611.1
2017-Jun-30 05:00N 35°26' E 139°45'5 9.2
2017-Jun-30 04:30N 35°30' E 139°47'1 2.0
2017-Jun-30 04:00N 35°31' E 139°46'0 0.1
2017-Jun-30 03:30N 35°31' E 139°46'0 0.0
2017-Jun-30 03:00N 35°31' E 139°46'0 0.0
2017-Jun-30 02:30N 35°31' E 139°46'0 0.1
2017-Jun-30 02:00N 35°31' E 139°46'0 0.1
2017-Jun-30 01:30N 35°31' E 139°46'0 0.0
2017-Jun-30 01:00N 35°31' E 139°46'0 0.1
2017-Jun-30 00:30N 35°31' E 139°46'0 0.1
2017-Jun-30 00:00N 35°31' E 139°46'0 0.0
2017-Jun-29 23:30N 35°31' E 139°46'0 0.0
2017-Jun-29 23:00N 35°31' E 139°46'0 0.1
2017-Jun-29 22:30N 35°31' E 139°46'0 0.1
2017-Jun-29 22:00N 35°31' E 139°46'1 1.2
2017-Jun-29 21:30N 35°31' E 139°46'3 5.4
2017-Jun-29 21:00N 35°29' E 139°49'0 0.0
2017-Jun-29 20:29N 35°29' E 139°49'0 0.0
2017-Jun-29 19:59N 35°29' E 139°49'0 0.0
2017-Jun-29 19:29N 35°29' E 139°49'0 0.0
2017-Jun-29 18:59N 35°29' E 139°49'0 0.0
2017-Jun-29 18:29N 35°29' E 139°49'0 0.1
2017-Jun-29 18:00N 35°29' E 139°49'4 8.0
2017-Jun-29 17:30N 35°25' E 139°47'612.2
2017-Jun-29 17:00N 35°20' E 139°44'  

Dump ship's entire track history